Terminal Aerodrome Forecast
Issued by NWS Atlanta, GA

Home | Current Version | Previous Version | Text Only | Print | Product List | Glossary On
Versions: 1 2 3 4 5 6 7 8 9 10 11 12 13 14 15 16 17 18 19 20 21 22 23
000
FTUS42 KFFC 021100
TAFMCN
TAF
KMCN 021131Z 0212/0312 00000KT P6SM SCT150
     FM021400 VRB03KT P6SM SCT030 SCT150
     FM021800 VRB05KT P6SM BKN050
      TEMPO 0218/0222 VRB15G30KT 5SM TSRA BKN045CB
     FM030200 00000KT P6SM SCT050 BKN120=

USA.gov is the U.S. government's official web portal to all federal, state and local government web resources and services.